Virtual United States Air Force

 METAR AND TAF INFORMATION
METAR FOR KCWF
ADDS - METARS form results

(1118 UTC 27 October 2020)
Data provider http://aviationweather.gov/metar/data/
 
METAR text: KCWF 271100Z 06005KT 10SM SKC 18/17 A2998
Conditions at: KCWF (CHENAULT/LK CHAS, LA, US) observed 1100 UTC 27 October 2020
Temperature: 18.0°C (64°F)
Dewpoint: 17.0°C (63°F) [RH = 94%]
Pressure (altimeter): 29.98 inches Hg (1015.3 mb)
Winds: from the ENE (60 degrees) at 6 MPH (5 knots; 2.6 m/s)
Visibility: 10 or more miles (16+ km)
Ceiling: at least 12,000 feet AGL
Clouds: clear skies
Weather: no significant weather observed at this time

METAR text: KCWF 271035Z AUTO 04005KT 7SM CLR 18/18 A2998 RMK AO2 T01800176
Conditions at: KCWF (CHENAULT/LK CHAS, LA, US) observed 1035 UTC 27 October 2020
Temperature: 18.0°C (64°F)
Dewpoint: 17.6°C (64°F) [RH = 98%]
Pressure (altimeter): 29.98 inches Hg (1015.3 mb)
Winds: from the NE (40 degrees) at 6 MPH (5 knots; 2.6 m/s)
Visibility: 7 miles (11 km)
Ceiling: at least 12,000 feet AGL
Clouds: sky clear below 12,000 feet AGL
Weather: automated observation with no human augmentation;
there may or may not be significant weather present at this time

 AIRPORT MAP

 RUNWAY INFORMATION
Runway 15 Runway length 10701 ft Runway width 200 ft
Runway elevation 15 ft Runway displaced threshold 0 ft Runway heading 155
Runway 33 Runway length 10701 ft Runway width 200 ft
Runway elevation 17 ft Runway displaced threshold 0 ft Runway heading 335

 AIRPORT FREQUENCIES
Type A/D Name LAKE CHARL Frequency 119.8 MHZ
Type AWOS Name AWOS 3 Frequency 120 MHZ
Type CTAF Name CTAF Frequency 124.2 MHZ
Type GND Name GND Frequency 121.65 MHZ
Type TWR Name TWR Frequency 124.2 MHZ
Type UNIC Name UNICOM Frequency 122.95 MHZ

 AIRPORT NEAR NAVIGATION AIDS


Neither the Department of the Air Force, nor any other component of the Department of Defense or Federal Government has approved, endorsed, or authorized this promotion, activity, or organization. Virtual United States Air Force organization is in no way affiliated with the Department of Defense, Department of the Air Force, or any other federal or government entity. Virtual United States Air Force is a group of flight simulation enthusiasts with the common interest of promoting enjoyment and cameraderie through the simulation of military operations and procedures utilizing several flight simulation platforms.

Copyright © vUSAF, LLC // 2018-2020 All Rights Reserved